Time;durP1;ratioP1;P1;durP2;ratioP2;P2;SDS_P1;SDS_P2;PMS_P1;PMS_P2;Temp;Humidity;BMP_temperature;BMP_pressure;BME280_temperature;BME280_humidity;BME280_pressure;Samples;Min_cycle;Max_cycle;Signal;HPM_P1;HPM_P2
2022/07/13 00:00:13;;;;;;;20.20;7.43;;;;;;;22.37;55.96;100822.06;5053643;28;20025;-81
2022/07/13 00:02:42;;;;;;;31.52;6.95;;;;;;;22.28;56.33;100815.03;5054899;28;20409;-83
2022/07/13 00:05:08;;;;;;;30.40;7.10;;;;;;;22.16;56.84;100819.34;5053847;28;20021;-82
2022/07/13 00:07:34;;;;;;;31.88;8.35;;;;;;;22.11;56.86;100813.56;5054830;28;20032;-82
2022/07/13 00:10:00;;;;;;;37.53;7.38;;;;;;;22.04;56.99;100812.69;5037295;28;20029;-81
2022/07/13 00:12:25;;;;;;;16.00;6.15;;;;;;;21.97;57.10;100795.31;5054886;28;20040;-82
2022/07/13 00:14:51;;;;;;;42.85;8.23;;;;;;;21.99;57.27;100805.03;5053283;28;20029;-82
2022/07/13 00:17:16;;;;;;;14.95;6.65;;;;;;;21.92;57.30;100806.88;5054037;28;20025;-82
2022/07/13 00:19:42;;;;;;;26.45;7.97;;;;;;;21.92;57.66;100814.22;5057065;28;20028;-82
2022/07/13 00:22:07;;;;;;;30.80;7.70;;;;;;;21.93;57.70;100805.81;5058319;28;20028;-82
2022/07/13 00:24:32;;;;;;;46.08;7.35;;;;;;;21.85;57.91;100802.31;5058851;28;20417;-81
2022/07/13 00:26:58;;;;;;;34.92;8.02;;;;;;;21.93;57.86;100810.44;5054686;28;20021;-82
2022/07/13 00:29:24;;;;;;;31.30;7.90;;;;;;;21.90;57.70;100827.25;5037141;28;20094;-82
2022/07/13 00:31:52;;;;;;;24.33;7.72;;;;;;;21.89;57.80;100820.09;5037125;28;20531;-82
2022/07/13 00:34:17;;;;;;;23.45;9.15;;;;;;;21.83;57.99;100812.63;5054488;28;20055;-83
2022/07/13 00:36:43;;;;;;;44.28;8.65;;;;;;;21.70;58.46;100822.38;5053108;28;20053;-83
2022/07/13 00:39:08;;;;;;;41.70;8.95;;;;;;;21.76;58.18;100815.28;5054100;28;20043;-82
2022/07/13 00:41:34;;;;;;;43.05;8.32;;;;;;;21.80;58.11;100818.47;5053790;28;20021;-83
2022/07/13 00:44:09;;;;;;;35.13;8.77;;;;;;;21.78;57.99;100817.81;5054890;28;20364;-83
2022/07/13 00:46:36;;;;;;;21.58;7.78;;;;;;;21.81;57.94;100825.63;5054353;28;20430;-82
2022/07/13 00:49:02;;;;;;;43.78;8.20;;;;;;;21.77;58.01;100821.59;5054630;28;20039;-81
2022/07/13 00:51:30;;;;;;;34.55;10.45;;;;;;;21.77;57.96;100827.09;5053212;28;20025;-81
2022/07/13 00:53:57;;;;;;;37.55;9.27;;;;;;;21.70;57.91;100816.91;5054841;28;20021;-82
2022/07/13 00:56:24;;;;;;;27.58;9.88;;;;;;;21.70;58.01;100819.63;5052855;28;20379;-82
2022/07/13 00:58:50;;;;;;;23.55;8.52;;;;;;;21.69;57.90;100820.66;5053089;28;20091;-82
2022/07/13 01:01:16;;;;;;;19.20;7.32;;;;;;;21.64;57.97;100805.88;5053082;28;20024;-82
2022/07/13 01:03:43;;;;;;;34.90;10.02;;;;;;;21.66;57.84;100821.06;5052821;28;20028;-82
2022/07/13 01:06:11;;;;;;;31.33;8.23;;;;;;;21.63;58.22;100810.47;5053769;28;20055;-82
2022/07/13 01:08:36;;;;;;;16.90;6.65;;;;;;;21.55;57.97;100813.34;5052963;28;20045;-81
2022/07/13 01:11:02;;;;;;;28.77;6.88;;;;;;;21.61;57.68;100825.41;5055317;28;20517;-81
2022/07/13 01:13:30;;;;;;;18.38;6.20;;;;;;;21.57;57.50;100824.09;5062551;28;20020;-81
2022/07/13 01:15:57;;;;;;;29.90;6.15;;;;;;;21.43;57.71;100812.13;5060902;28;20040;-82
2022/07/13 01:18:22;;;;;;;21.60;5.30;;;;;;;21.46;57.44;100819.13;5061387;28;20475;-81
2022/07/13 01:20:48;;;;;;;15.35;6.40;;;;;;;21.39;57.07;100819.03;5054251;28;20028;-81
2022/07/13 01:23:17;;;;;;;15.63;4.93;;;;;;;21.22;56.60;100800.25;5052975;28;20032;-81
2022/07/13 01:25:42;;;;;;;36.65;5.45;;;;;;;21.37;55.97;100826.59;5053536;28;20029;-81
2022/07/13 01:28:12;;;;;;;9.82;4.57;;;;;;;21.30;55.92;100819.31;5062667;28;20024;-81
2022/07/13 01:30:38;;;;;;;11.90;5.47;;;;;;;21.34;55.85;100809.69;5057660;28;20017;-82
2022/07/13 01:33:03;;;;;;;16.88;5.18;;;;;;;21.31;55.62;100799.97;5053093;28;20514;-82
2022/07/13 01:35:29;;;;;;;17.60;5.40;;;;;;;21.32;55.20;100809.84;5052231;28;20103;-82
2022/07/13 01:37:55;;;;;;;9.65;3.63;;;;;;;21.28;54.84;100811.31;5035631;28;20053;-82
2022/07/13 01:40:21;;;;;;;11.52;4.20;;;;;;;21.19;54.87;100812.44;5053617;28;20545;-82
2022/07/13 01:42:50;;;;;;;15.35;5.15;;;;;;;21.23;54.83;100824.69;5051400;28;20044;-82
2022/07/13 01:45:18;;;;;;;8.43;4.38;;;;;;;21.26;54.37;100818.84;5035128;28;20039;-82
2022/07/13 01:47:48;;;;;;;14.55;4.90;;;;;;;21.13;54.37;100827.69;5052953;28;20025;-82
2022/07/13 01:50:16;;;;;;;10.95;4.32;;;;;;;21.10;54.54;100830.81;5052905;28;20116;-82
2022/07/13 01:52:43;;;;;;;9.20;4.07;;;;;;;21.08;53.96;100826.53;5051594;28;20025;-81
2022/07/13 01:55:10;;;;;;;10.77;4.28;;;;;;;21.03;53.93;100826.25;5052154;28;20029;-83
2022/07/13 01:57:36;;;;;;;14.75;4.78;;;;;;;20.96;53.98;100825.31;5035499;28;20040;-82
2022/07/13 02:00:05;;;;;;;6.47;4.25;;;;;;;20.87;53.61;100812.75;5053383;28;20395;-81
2022/07/13 02:02:32;;;;;;;15.85;4.20;;;;;;;20.93;53.25;100831.16;5052285;28;20025;-82
2022/07/13 02:04:57;;;;;;;19.35;4.68;;;;;;;20.78;52.92;100819.34;5053372;28;20028;-82
2022/07/13 02:07:24;;;;;;;12.43;4.25;;;;;;;20.87;52.55;100819.06;5053849;28;20044;-82
2022/07/13 02:09:50;;;;;;;14.45;4.55;;;;;;;20.98;52.14;100831.41;5052491;28;20047;-81
2022/07/13 02:12:17;;;;;;;20.05;4.43;;;;;;;20.96;51.58;100828.03;5035441;28;20131;-82
2022/07/13 02:14:44;;;;;;;20.63;4.13;;;;;;;20.95;51.07;100826.31;5051514;28;20037;-83
2022/07/13 02:17:10;;;;;;;13.27;3.40;;;;;;;20.93;50.43;100825.66;5052788;28;20043;-82
2022/07/13 02:19:35;;;;;;;10.30;3.53;;;;;;;20.89;50.69;100813.41;5055640;28;20358;-82
2022/07/13 02:22:01;;;;;;;7.07;3.75;;;;;;;20.73;50.34;100810.84;5056502;28;20082;-82
2022/07/13 02:24:27;;;;;;;8.45;3.15;;;;;;;20.62;50.17;100807.53;5057170;28;20021;-81
2022/07/13 02:26:52;;;;;;;11.57;3.33;;;;;;;20.67;49.35;100828.84;5057119;28;20021;-82
2022/07/13 02:29:18;;;;;;;14.98;3.67;;;;;;;20.59;49.16;100816.09;5056039;28;20502;-81
2022/07/13 02:31:43;;;;;;;9.73;3.65;;;;;;;20.62;48.99;100821.19;5056830;28;20441;-82
2022/07/13 02:34:09;;;;;;;7.13;2.78;;;;;;;20.69;48.62;100812.25;5038378;28;20033;-81
2022/07/13 02:36:37;;;;;;;6.78;2.95;;;;;;;20.60;48.29;100806.88;5021430;28;20045;-80
2022/07/13 02:39:04;;;;;;;7.68;2.85;;;;;;;20.51;47.93;100802.53;5057157;28;20401;-81
2022/07/13 02:41:29;;;;;;;9.05;3.28;;;;;;;20.49;48.33;100818.22;5064473;28;20029;-82
2022/07/13 02:43:55;;;;;;;14.02;3.88;;;;;;;20.51;48.80;100809.88;5063819;28;20043;-82
2022/07/13 02:46:20;;;;;;;19.65;4.20;;;;;;;20.47;48.98;100801.19;5063138;28;20082;-82
2022/07/13 02:48:46;;;;;;;16.52;3.20;;;;;;;20.47;48.76;100803.91;5057498;28;20021;-82
2022/07/13 02:51:12;;;;;;;12.38;3.63;;;;;;;20.37;48.35;100806.03;5058013;28;20025;-82
2022/07/13 02:53:38;;;;;;;10.30;3.00;;;;;;;20.39;48.19;100819.53;5055478;28;20036;-81
2022/07/13 02:56:06;;;;;;;11.27;3.72;;;;;;;20.38;48.30;100805.03;5055109;28;20421;-81
2022/07/13 02:58:32;;;;;;;7.55;3.20;;;;;;;20.36;48.02;100792.59;5056023;28;20021;-82
2022/07/13 03:00:58;;;;;;;9.00;2.63;;;;;;;20.29;47.90;100787.00;5055997;28;20024;-82
2022/07/13 03:03:24;;;;;;;11.55;3.05;;;;;;;19.83;47.43;100695.19;5056232;28;20025;-81
2022/07/13 03:05:50;;;;;;;11.15;4.93;;;;;;;20.33;47.78;100796.53;5067892;28;20028;-82
2022/07/13 03:08:15;;;;;;;12.05;3.40;;;;;;;20.43;47.78;100810.78;5055772;28;20359;-81
2022/07/13 03:10:41;;;;;;;7.88;3.30;;;;;;;20.47;47.17;100795.72;5054147;28;20032;-82
2022/07/13 03:13:06;;;;;;;11.43;2.88;;;;;;;20.41;47.31;100818.31;5056080;28;20017;-81
2022/07/13 03:15:32;;;;;;;6.57;2.38;;;;;;;20.41;47.55;100817.47;5039187;28;20437;-82
2022/07/13 03:17:57;;;;;;;13.55;4.28;;;;;;;20.39;47.31;100812.19;5060205;28;20036;-79
2022/07/13 03:20:24;;;;;;;9.10;3.13;;;;;;;20.47;47.23;100816.72;5064044;28;20032;-80
2022/07/13 03:22:52;;;;;;;3.85;2.58;;;;;;;20.49;47.01;100815.50;5055038;28;20572;-85
2022/07/13 03:25:21;;;;;;;9.57;2.97;;;;;;;20.51;47.08;100809.88;5055229;28;20021;-83
2022/07/13 03:27:46;;;;;;;6.20;2.55;;;;;;;20.51;47.35;100805.25;5054110;28;20042;-81
2022/07/13 03:30:12;;;;;;;12.90;2.65;;;;;;;20.43;47.53;100799.84;5054908;28;20459;-82
2022/07/13 03:32:37;;;;;;;8.95;2.83;;;;;;;20.51;47.60;100810.72;5054977;28;20040;-82
2022/07/13 03:35:03;;;;;;;8.07;3.15;;;;;;;20.54;47.63;100806.75;5054210;28;20029;-82
2022/07/13 03:37:29;;;;;;;11.07;3.38;;;;;;;20.53;47.80;100803.16;5054082;28;20116;-81
2022/07/13 03:39:54;;;;;;;9.82;3.05;;;;;;;20.60;47.93;100800.56;5037809;28;20473;-82
2022/07/13 03:42:19;;;;;;;6.47;2.92;;;;;;;20.61;47.75;100797.63;5053891;28;20028;-81
2022/07/13 03:44:45;;;;;;;10.32;4.03;;;;;;;20.56;48.00;100794.59;5055159;28;20040;-82
2022/07/13 03:47:10;;;;;;;16.15;3.85;;;;;;;20.66;47.95;100799.81;5054805;28;20402;-82
2022/07/13 03:49:36;;;;;;;9.18;3.40;;;;;;;20.60;47.84;100787.75;5055122;28;20029;-82
2022/07/13 03:52:01;;;;;;;12.80;3.45;;;;;;;20.56;48.08;100800.06;5053569;28;20039;-82
2022/07/13 03:54:28;;;;;;;6.22;2.75;;;;;;;20.45;48.16;100777.81;5054336;28;20037;-82
2022/07/13 03:56:54;;;;;;;23.70;3.20;;;;;;;20.46;48.27;100794.00;5054872;28;20029;-82
2022/07/13 03:59:19;;;;;;;17.13;3.42;;;;;;;20.46;48.44;100793.16;5055252;28;20032;-82
2022/07/13 04:01:45;;;;;;;9.68;2.80;;;;;;;20.50;48.47;100795.34;5055525;28;20063;-82
2022/07/13 04:04:12;;;;;;;11.90;3.17;;;;;;;20.45;48.45;100795.06;5055066;28;20440;-83
2022/07/13 04:06:37;;;;;;;14.25;4.03;;;;;;;20.50;48.33;100799.97;5055249;28;20027;-82
2022/07/13 04:09:04;;;;;;;20.77;3.95;;;;;;;20.57;48.43;100804.50;5057545;28;20025;-83
2022/07/13 04:11:29;;;;;;;11.40;3.42;;;;;;;20.53;48.50;100794.97;5059374;28;20048;-83
2022/07/13 04:13:55;;;;;;;12.57;3.05;;;;;;;20.56;48.56;100786.41;5060452;28;20024;-82
2022/07/13 04:16:20;;;;;;;9.60;3.58;;;;;;;20.53;48.49;100792.25;5056000;28;20052;-81
2022/07/13 04:18:46;;;;;;;12.43;3.63;;;;;;;20.51;48.73;100786.13;5052864;28;20032;-82
2022/07/13 04:21:14;;;;;;;14.40;3.65;;;;;;;20.54;48.85;100795.84;5053383;28;20025;-81
2022/07/13 04:23:40;;;;;;;16.90;3.92;;;;;;;20.57;48.78;100790.84;5055740;28;20021;-81
2022/07/13 04:26:06;;;;;;;14.05;4.13;;;;;;;20.59;48.60;100796.13;5054341;28;20490;-81
2022/07/13 04:28:31;;;;;;;11.75;4.25;;;;;;;20.53;48.65;100803.16;5054555;28;20071;-82
2022/07/13 04:30:59;;;;;;;27.02;5.43;;;;;;;20.39;48.95;100776.69;5053433;28;20122;-83
2022/07/13 04:33:24;;;;;;;20.60;5.28;;;;;;;20.52;49.21;100809.66;5053930;28;20025;-81
2022/07/13 04:35:50;;;;;;;15.32;4.93;;;;;;;20.52;49.41;100820.59;5053880;28;20071;-82
2022/07/13 04:38:17;;;;;;;12.55;5.13;;;;;;;20.57;49.86;100840.03;5053171;28;20041;-81
2022/07/13 04:40:43;;;;;;;25.45;6.40;;;;;;;20.57;50.21;100831.84;5060710;28;20025;-83
2022/07/13 04:43:08;;;;;;;22.52;5.65;;;;;;;20.60;50.68;100841.56;5067042;28;20025;-81
2022/07/13 04:45:34;;;;;;;16.42;5.25;;;;;;;20.47;51.25;100844.03;5053530;28;20071;-82
2022/07/13 04:48:00;;;;;;;19.85;5.00;;;;;;;20.46;51.86;100848.66;5054087;28;20063;-82
2022/07/13 04:50:25;;;;;;;26.77;5.03;;;;;;;20.55;51.98;100842.09;5052181;28;20029;-82
2022/07/13 04:52:51;;;;;;;15.43;3.67;;;;;;;20.69;51.98;100843.19;5053124;28;20049;-82
2022/07/13 04:55:17;;;;;;;15.85;5.05;;;;;;;20.57;52.28;100817.31;5035651;28;20040;-85
2022/07/13 04:57:43;;;;;;;20.55;4.72;;;;;;;20.71;52.56;100841.09;5052609;28;20186;-83
2022/07/13 05:00:10;;;;;;;15.00;4.15;;;;;;;20.80;52.70;100831.78;5053677;28;20103;-82
2022/07/13 05:02:39;;;;;;;19.60;4.32;;;;;;;20.89;52.64;100827.06;5055226;28;20086;-83
2022/07/13 05:05:07;;;;;;;15.55;4.25;;;;;;;20.98;52.87;100832.28;5057719;28;20040;-82
2022/07/13 05:07:33;;;;;;;15.07;4.32;;;;;;;21.03;52.57;100829.00;5036086;28;20439;-82
2022/07/13 05:09:58;;;;;;;11.93;4.10;;;;;;;21.12;52.57;100827.91;5051644;28;20075;-81
2022/07/13 05:12:24;;;;;;;9.48;4.03;;;;;;;21.22;52.32;100831.22;5053215;28;20028;-82
2022/07/13 05:14:50;;;;;;;15.85;4.53;;;;;;;21.32;52.27;100829.00;5052182;28;20036;-82
2022/07/13 05:17:16;;;;;;;5.07;3.20;;;;;;;21.36;52.13;100819.41;5053026;28;20025;-82
2022/07/13 05:19:43;;;;;;;15.15;6.20;;;;;;;21.45;51.94;100820.13;5052921;28;20082;-82
2022/07/13 05:22:10;;;;;;;9.20;3.95;;;;;;;21.67;51.72;100850.13;5052305;28;20028;-82
2022/07/13 05:24:36;;;;;;;9.13;3.80;;;;;;;21.65;51.80;100846.72;5053300;28;20016;-81
2022/07/13 05:27:03;;;;;;;15.45;4.15;;;;;;;21.68;51.79;100840.88;5052602;28;20041;-82
2022/07/13 05:29:28;;;;;;;15.50;4.43;;;;;;;21.68;51.70;100840.88;5051732;28;20017;-81
2022/07/13 05:31:54;;;;;;;21.60;4.65;;;;;;;21.84;51.61;100847.16;5053679;28;20059;-82
2022/07/13 05:34:21;;;;;;;24.05;4.68;;;;;;;21.97;51.88;100847.34;5052813;28;20028;-82
2022/07/13 05:36:46;;;;;;;24.73;5.50;;;;;;;22.02;51.67;100836.66;5054857;28;20032;-82
2022/07/13 05:39:12;;;;;;;42.72;8.00;;;;;;;22.10;51.80;100834.66;5056181;28;20021;-82
2022/07/13 05:41:39;;;;;;;19.90;3.63;;;;;;;22.05;51.91;100839.84;5055869;28;20025;-81
2022/07/13 05:44:05;;;;;;;17.83;4.32;;;;;;;22.06;51.71;100832.50;5055516;28;20086;-82
2022/07/13 05:46:31;;;;;;;11.23;3.85;;;;;;;22.19;51.59;100838.97;5053099;28;20029;-81
2022/07/13 05:48:57;;;;;;;18.60;3.75;;;;;;;22.28;51.01;100836.94;5052650;28;20032;-81
2022/07/13 05:51:23;;;;;;;14.13;4.47;;;;;;;22.43;50.61;100839.63;5052164;28;20785;-83
2022/07/13 05:53:53;;;;;;;15.57;3.35;;;;;;;22.41;49.64;100831.59;5051546;28;20036;-82
2022/07/13 05:56:18;;;;;;;15.75;3.85;;;;;;;22.47;49.06;100840.94;5051933;28;20021;-83
2022/07/13 05:58:44;;;;;;;7.43;3.22;;;;;;;22.61;49.14;100840.00;5053347;28;20827;-83
2022/07/13 06:01:09;;;;;;;19.27;3.88;;;;;;;22.60;48.35;100828.16;5053010;28;20020;-83
2022/07/13 06:03:35;;;;;;;18.50;3.67;;;;;;;22.78;48.17;100836.78;5035834;28;20119;-83
2022/07/13 06:06:01;;;;;;;8.65;3.85;;;;;;;22.95;48.09;100839.25;5052563;28;20025;-83
2022/07/13 06:08:26;;;;;;;20.23;4.85;;;;;;;22.86;48.13;100819.34;5057208;28;20067;-84
2022/07/13 06:10:52;;;;;;;7.30;3.70;;;;;;;22.99;47.95;100830.44;5059001;28;20017;-82
2022/07/13 06:13:18;;;;;;;9.38;4.43;;;;;;;23.11;47.86;100834.31;5052380;28;20075;-83
2022/07/13 06:15:45;;;;;;;5.00;2.38;;;;;;;23.28;45.98;100837.56;5052251;28;20056;-82
2022/07/13 06:18:11;;;;;;;7.70;2.90;;;;;;;23.33;45.36;100833.16;5054684;28;20032;-82
2022/07/13 06:20:36;;;;;;;17.42;3.50;;;;;;;23.39;45.34;100834.31;5067692;28;20029;-83
2022/07/13 06:23:14;;;;;;;10.45;2.00;;;;;;;23.47;44.80;100812.16;5051665;28;20471;-82
2022/07/13 06:25:43;;;;;;;15.43;3.00;;;;;;;23.60;44.74;100823.22;5051868;28;20032;-82
2022/07/13 06:28:08;;;;;;;27.08;4.90;;;;;;;23.73;43.99;100823.25;5052577;28;20075;-82
2022/07/13 06:30:35;;;;;;;9.63;2.45;;;;;;;23.75;43.73;100826.66;5052611;28;20834;-82
2022/07/13 06:33:04;;;;;;;12.27;2.40;;;;;;;23.78;43.77;100826.25;5051610;28;20470;-82
2022/07/13 06:35:32;;;;;;;5.72;1.92;;;;;;;23.82;43.23;100819.25;5052999;28;20029;-82
2022/07/13 06:37:58;;;;;;;11.80;2.25;;;;;;;23.89;42.68;100815.69;5052359;28;20045;-82
2022/07/13 06:40:24;;;;;;;5.07;2.08;;;;;;;24.00;41.29;100828.84;5050949;28;20036;-81
2022/07/13 06:42:49;;;;;;;9.43;1.85;;;;;;;24.02;41.24;100811.09;5034151;28;20044;-81
2022/07/13 06:45:15;;;;;;;7.88;2.13;;;;;;;23.99;40.89;100811.50;5051011;28;20035;-83
2022/07/13 06:47:40;;;;;;;2.95;1.80;;;;;;;24.02;41.15;100804.75;5050552;28;20104;-81
2022/07/13 06:50:07;;;;;;;3.60;2.08;;;;;;;24.09;40.53;100806.47;5050675;28;20028;-82
2022/07/13 06:52:33;;;;;;;6.63;1.50;;;;;;;24.16;40.26;100818.31;5051710;28;20036;-81
2022/07/13 06:54:59;;;;;;;8.75;1.92;;;;;;;24.12;41.15;100811.56;5050309;28;20395;-82
2022/07/13 06:57:25;;;;;;;4.47;1.45;;;;;;;24.26;41.13;100813.28;5053022;28;20032;-82
2022/07/13 06:59:51;;;;;;;5.75;1.90;;;;;;;24.31;41.31;100815.41;5051863;28;20083;-81
2022/07/13 07:02:16;;;;;;;4.70;2.30;;;;;;;24.40;41.22;100807.81;5053058;28;20445;-81
2022/07/13 07:04:43;;;;;;;7.78;3.78;;;;;;;24.42;41.25;100812.03;5056955;28;20025;-81
2022/07/13 07:07:09;;;;;;;6.47;1.92;;;;;;;24.62;40.78;100821.13;5044811;28;20079;-81
2022/07/13 07:09:35;;;;;;;10.60;2.90;;;;;;;24.73;40.86;100831.50;5061045;28;20413;-82
2022/07/13 07:12:01;;;;;;;2.92;1.50;;;;;;;24.78;39.76;100820.69;5059674;28;20028;-82
2022/07/13 07:14:26;;;;;;;5.82;1.38;;;;;;;24.87;38.97;100830.47;5038394;28;20052;-81
2022/07/13 07:16:51;;;;;;;4.07;1.52;;;;;;;24.95;39.48;100823.91;5055662;28;20051;-82
2022/07/13 07:19:18;;;;;;;3.20;1.63;;;;;;;24.95;38.53;100812.06;5055694;28;20025;-82
2022/07/13 07:21:44;;;;;;;6.25;2.47;;;;;;;25.04;38.63;100817.13;5054617;28;20518;-82
2022/07/13 07:24:09;;;;;;;3.25;1.90;;;;;;;25.20;38.50;100813.03;5053935;28;20029;-82
2022/07/13 07:26:35;;;;;;;3.97;1.50;;;;;;;25.22;38.36;100813.69;5055766;28;20037;-82
2022/07/13 07:29:00;;;;;;;2.50;1.27;;;;;;;25.36;37.33;100821.69;5055586;28;20013;-81
2022/07/13 07:31:26;;;;;;;3.33;1.70;;;;;;;25.43;37.15;100818.91;5055497;28;20036;-82
2022/07/13 07:33:52;;;;;;;5.95;1.70;;;;;;;25.55;37.25;100819.97;5055011;28;20024;-83
2022/07/13 07:36:17;;;;;;;7.15;1.38;;;;;;;25.65;37.27;100819.50;5053697;28;20459;-81
2022/07/13 07:38:43;;;;;;;4.60;2.00;;;;;;;25.73;37.21;100814.59;5055057;28;20080;-82
2022/07/13 07:41:10;;;;;;;3.92;1.83;;;;;;;25.82;36.41;100821.53;5056326;28;20502;-82
2022/07/13 07:43:37;;;;;;;2.45;1.25;;;;;;;25.75;36.54;100800.56;5055834;28;20029;-82
2022/07/13 07:46:02;;;;;;;6.45;1.90;;;;;;;25.92;36.18;100824.69;5055026;28;20495;-83
2022/07/13 07:48:29;;;;;;;36.10;2.92;;;;;;;26.02;36.41;100820.59;5054933;28;20032;-81
2022/07/13 07:50:55;;;;;;;3.78;1.95;;;;;;;26.00;36.57;100812.53;5054247;28;20590;-83
2022/07/13 07:53:20;;;;;;;3.05;1.50;;;;;;;26.19;36.60;100813.50;5055443;28;20035;-81
2022/07/13 07:55:46;;;;;;;2.97;1.75;;;;;;;26.26;36.18;100814.31;5058187;28;20049;-81
2022/07/13 07:58:16;;;;;;;6.75;1.50;;;;;;;26.40;35.73;100813.16;5059122;28;20056;-82
2022/07/13 08:00:44;;;;;;;6.40;1.42;;;;;;;26.48;35.27;100821.19;5055357;28;20460;-83
2022/07/13 08:03:13;;;;;;;5.13;1.02;;;;;;;26.50;34.47;100816.25;5057482;28;20376;-82
2022/07/13 08:05:41;;;;;;;6.45;1.90;;;;;;;26.55;34.50;100819.19;5037672;28;20036;-83
2022/07/13 08:08:06;;;;;;;9.68;1.58;;;;;;;26.60;34.57;100819.38;5021352;28;20116;-83
2022/07/13 08:10:33;;;;;;;10.30;1.92;;;;;;;26.68;34.34;100821.00;5054799;28;20430;-82
2022/07/13 08:13:03;;;;;;;3.67;1.63;;;;;;;26.76;34.72;100823.47;5052837;28;20025;-82
2022/07/13 08:15:29;;;;;;;8.98;1.80;;;;;;;26.92;34.53;100818.25;5051679;28;20108;-82
2022/07/13 08:17:56;;;;;;;28.80;1.67;;;;;;;26.84;33.64;100824.09;5054524;28;20033;-82
2022/07/13 08:20:22;;;;;;;14.40;2.00;;;;;;;26.97;33.69;100825.88;5052985;28;20035;-83
2022/07/13 08:22:47;;;;;;;6.90;1.55;;;;;;;27.01;33.09;100819.66;5053531;28;20025;-83
2022/07/13 08:25:13;;;;;;;12.27;1.65;;;;;;;27.15;33.23;100830.59;5054136;28;20024;-82
2022/07/13 08:27:39;;;;;;;3.78;1.77;;;;;;;27.10;33.13;100814.69;5052627;28;20368;-82
2022/07/13 08:30:05;;;;;;;2.92;1.00;;;;;;;27.25;33.47;100823.44;5036527;28;20052;-82
2022/07/13 08:32:30;;;;;;;6.82;1.35;;;;;;;27.27;32.96;100826.84;5055406;28;20048;-81
2022/07/13 08:40:24;;;;;;;4.05;1.20;;;;;;;27.31;31.55;100832.72;5058958;28;20064;-81
2022/07/13 08:42:51;;;;;;;10.35;1.85;;;;;;;27.24;32.10;100823.69;5053672;28;20475;-83
2022/07/13 08:45:17;;;;;;;10.27;1.70;;;;;;;27.31;32.85;100829.97;5035715;28;20029;-81
2022/07/13 08:47:43;;;;;;;11.93;1.10;;;;;;;27.34;31.30;100838.63;5052035;28;20047;-82
2022/07/13 08:50:09;;;;;;;4.55;1.30;;;;;;;27.30;31.65;100834.66;5053184;28;20033;-82
2022/07/13 08:52:42;;;;;;;6.00;1.13;;;;;;;27.21;31.88;100840.72;5052344;28;20025;-82
2022/07/13 08:55:08;;;;;;;4.32;1.20;;;;;;;27.11;32.65;100832.09;5052404;28;20029;-81
2022/07/13 08:57:38;;;;;;;5.38;1.17;;;;;;;27.13;32.56;100835.47;5054511;28;20061;-82
2022/07/13 09:00:08;;;;;;;3.00;1.30;;;;;;;27.19;32.92;100834.56;5053739;28;20036;-82
2022/07/13 09:02:34;;;;;;;11.82;1.65;;;;;;;27.24;33.36;100831.97;5060384;28;20036;-80
2022/07/13 09:05:05;;;;;;;15.55;1.83;;;;;;;27.35;33.21;100839.50;5058018;28;20032;-81
2022/07/13 09:07:31;;;;;;;9.38;1.60;;;;;;;27.37;32.93;100842.84;5052115;28;20031;-82
2022/07/13 09:09:59;;;;;;;7.05;1.60;;;;;;;27.49;33.01;100838.31;5051702;28;20510;-81
2022/07/13 09:12:27;;;;;;;5.18;1.75;;;;;;;27.62;33.06;100840.91;5034923;28;20050;-82
2022/07/13 09:15:06;;;;;;;3.28;1.13;;;;;;;27.62;31.67;100834.53;5053803;28;20108;-82
2022/07/13 09:17:40;;;;;;;4.75;1.70;;;;;;;27.54;31.87;100824.66;5053512;28;20032;-82
2022/07/13 09:20:20;;;;;;;5.25;1.40;;;;;;;27.55;31.96;100834.63;5053290;28;20052;-82
2022/07/13 09:22:57;;;;;;;4.03;1.10;;;;;;;27.58;32.58;100832.22;5053089;28;20031;-82
2022/07/13 09:25:32;;;;;;;7.28;1.60;;;;;;;27.54;31.02;100831.03;5053592;28;20033;-81
2022/07/13 09:28:02;;;;;;;5.65;1.13;;;;;;;27.66;31.18;100820.03;5053325;28;20131;-82
2022/07/13 09:30:28;;;;;;;5.15;1.63;;;;;;;27.74;31.57;100816.94;5053304;28;20083;-81
2022/07/13 09:32:55;;;;;;;4.63;1.08;;;;;;;27.77;30.77;100830.28;5059189;28;20028;-80
2022/07/13 09:35:40;;;;;;;1.75;0.73;;;;;;;27.79;30.09;100814.34;5056448;28;20491;-83
2022/07/13 09:38:07;;;;;;;1.88;1.15;;;;;;;27.91;30.31;100809.72;5051680;28;20526;-82
2022/07/13 09:40:34;;;;;;;2.67;0.90;;;;;;;27.99;29.07;100797.47;5052859;28;20024;-83
2022/07/13 09:48:28;;;;;;;2.17;1.00;;;;;;;28.34;28.50;100812.28;5052367;28;20482;-81
2022/07/13 09:50:55;;;;;;;1.33;0.80;;;;;;;28.43;27.19;100796.19;5051572;28;20036;-82
2022/07/13 09:53:25;;;;;;;3.35;0.93;;;;;;;28.38;27.24;100793.28;5052951;28;20034;-81
2022/07/13 09:55:52;;;;;;;4.05;1.42;;;;;;;28.32;27.42;100788.69;5053041;28;20032;-81
2022/07/13 09:58:29;;;;;;;2.97;0.98;;;;;;;28.38;27.89;100794.13;5051711;28;20075;-81
2022/07/13 10:00:56;;;;;;;5.18;0.80;;;;;;;28.43;27.52;100794.28;5053365;28;20025;-82
2022/07/13 10:03:23;;;;;;;1.95;1.02;;;;;;;28.54;27.52;100789.81;5057228;28;20028;-82
2022/07/13 10:05:54;;;;;;;6.72;1.08;;;;;;;28.57;26.68;100786.56;5041306;28;20046;-82
2022/07/13 10:08:20;;;;;;;7.75;0.90;;;;;;;28.61;27.01;100785.03;5058682;28;20024;-82
2022/07/13 10:10:47;;;;;;;6.57;1.05;;;;;;;28.59;26.97;100765.88;5052914;28;20577;-81
2022/07/13 10:13:14;;;;;;;5.45;1.25;;;;;;;28.86;25.58;100782.91;5052220;28;20037;-81
2022/07/13 10:15:41;;;;;;;2.15;0.75;;;;;;;28.87;25.53;100781.81;5052079;28;20033;-83
2022/07/13 10:18:12;;;;;;;1.92;0.90;;;;;;;28.99;25.30;100763.25;5052327;28;20033;-83
2022/07/13 10:20:42;;;;;;;2.03;1.20;;;;;;;29.30;25.89;100766.75;5052340;28;20133;-84
2022/07/13 10:23:09;;;;;;;3.92;1.00;;;;;;;29.48;25.58;100761.88;5052491;28;20068;-82
2022/07/13 10:25:45;;;;;;;5.82;1.08;;;;;;;29.45;24.88;100775.38;5051699;28;20063;-83
2022/07/13 10:28:12;;;;;;;1.40;0.60;;;;;;;29.42;24.74;100767.56;5051152;28;20566;-84
2022/07/13 10:30:38;;;;;;;5.43;1.52;;;;;;;29.36;25.12;100771.31;5053891;28;20037;-83
2022/07/13 10:33:21;;;;;;;33.03;2.92;;;;;;;29.38;24.80;100769.16;5052611;28;20029;-82
2022/07/13 10:35:49;;;;;;;48.88;5.63;;;;;;;29.39;24.76;100754.19;5050803;28;20483;-84
2022/07/13 10:38:20;;;;;;;4.95;2.28;;;;;;;29.57;24.93;100765.13;5052903;28;20049;-82
2022/07/13 10:40:46;;;;;;;1.45;1.05;;;;;;;29.60;25.12;100759.09;5056604;28;20379;-82
2022/07/13 10:43:20;;;;;;;7.55;1.13;;;;;;;29.68;24.73;100764.25;5056118;28;20032;-83
2022/07/13 10:45:48;;;;;;;1.10;0.80;;;;;;;29.56;24.52;100741.25;5056072;28;20490;-82
2022/07/13 10:48:18;;;;;;;5.68;0.80;;;;;;;29.52;24.92;100759.47;5055117;28;20033;-81
2022/07/13 10:50:45;;;;;;;3.42;0.60;;;;;;;29.57;25.10;100762.34;5054958;28;20406;-82
2022/07/13 10:53:11;;;;;;;6.63;1.00;;;;;;;29.65;25.51;100753.66;5054862;28;20032;-82
2022/07/13 10:55:45;;;;;;;8.43;4.22;;;;;;;29.73;25.25;100747.69;5056405;28;20033;-83
2022/07/13 10:58:39;;;;;;;5.25;3.20;;;;;;;29.96;24.81;100757.88;5055832;28;20037;-83
2022/07/13 11:01:43;;;;;;;1.63;0.70;;;;;;;29.92;23.91;100743.66;5056682;28;20028;-83
2022/07/13 11:04:11;;;;;;;0.98;0.70;;;;;;;29.93;23.68;100736.19;5063497;28;20478;-83
2022/07/13 11:06:38;;;;;;;1.48;0.80;;;;;;;30.20;23.90;100746.41;5058906;28;20032;-83
2022/07/13 11:09:20;;;;;;;5.97;0.90;;;;;;;30.41;23.18;100746.78;5056415;28;20071;-83
2022/07/13 11:11:51;;;;;;;3.22;0.82;;;;;;;30.60;23.06;100731.56;5068197;28;20106;-82
2022/07/13 11:14:36;;;;;;;4.18;1.00;;;;;;;30.91;23.29;100736.47;5054761;28;20064;-83
2022/07/13 11:17:17;;;;;;;3.28;0.98;;;;;;;31.12;23.72;100730.16;5055565;28;20032;-83
2022/07/13 11:19:53;;;;;;;9.75;1.50;;;;;;;31.14;23.72;100736.28;5056229;28;20032;-83
2022/07/13 11:22:22;;;;;;;1.00;0.80;;;;;;;31.08;23.69;100725.34;5055323;28;20033;-83
2022/07/13 11:25:14;;;;;;;7.97;1.08;;;;;;;31.02;23.56;100738.31;5055648;28;20468;-83
2022/07/13 11:28:04;;;;;;;8.45;1.67;;;;;;;31.01;23.45;100731.06;5055620;28;20484;-83
2022/07/13 11:30:34;;;;;;;6.22;1.23;;;;;;;30.85;23.50;100737.50;5061209;28;20048;-82
2022/07/13 11:33:01;;;;;;;7.68;1.23;;;;;;;30.55;22.83;100710.09;5066753;28;20033;-82